sensor_id;sensor_type;location;lat;lon;timestamp;pressure;altitude;pressure_sealevel;temperature;humidity
22964;BME280;11648;49.306;6.934;2023-02-28T00:01:24;99262.50;;;3.63;44.51
22964;BME280;11648;49.306;6.934;2023-02-28T00:03:50;99263.31;;;3.61;44.74
22964;BME280;11648;49.306;6.934;2023-02-28T00:06:17;99268.94;;;3.44;45.16
22964;BME280;11648;49.306;6.934;2023-02-28T00:08:44;99263.91;;;3.52;45.13
22964;BME280;11648;49.306;6.934;2023-02-28T00:11:13;99263.88;;;3.51;45.03
22964;BME280;11648;49.306;6.934;2023-02-28T00:13:42;99267.16;;;3.43;45.13
22964;BME280;11648;49.306;6.934;2023-02-28T00:16:13;99268.13;;;3.47;45.30
22964;BME280;11648;49.306;6.934;2023-02-28T00:18:41;99261.28;;;3.51;45.03
22964;BME280;11648;49.306;6.934;2023-02-28T00:21:08;99269.84;;;3.46;45.40
22964;BME280;11648;49.306;6.934;2023-02-28T00:23:35;99264.56;;;3.45;45.08
22964;BME280;11648;49.306;6.934;2023-02-28T00:26:02;99264.31;;;3.36;45.31
22964;BME280;11648;49.306;6.934;2023-02-28T00:28:29;99265.19;;;3.36;45.47
22964;BME280;11648;49.306;6.934;2023-02-28T00:30:58;99270.03;;;3.24;46.09
22964;BME280;11648;49.306;6.934;2023-02-28T00:33:27;99262.19;;;3.23;46.18
22964;BME280;11648;49.306;6.934;2023-02-28T00:36:05;99269.28;;;3.28;46.30
22964;BME280;11648;49.306;6.934;2023-02-28T00:38:35;99264.97;;;3.29;45.94
22964;BME280;11648;49.306;6.934;2023-02-28T00:41:02;99264.13;;;3.30;46.19
22964;BME280;11648;49.306;6.934;2023-02-28T00:43:33;99267.56;;;3.29;46.44
22964;BME280;11648;49.306;6.934;2023-02-28T00:46:00;99268.28;;;3.23;46.54
22964;BME280;11648;49.306;6.934;2023-02-28T00:48:29;99269.75;;;3.15;46.62
22964;BME280;11648;49.306;6.934;2023-02-28T00:50:56;99267.97;;;3.14;46.81
22964;BME280;11648;49.306;6.934;2023-02-28T00:53:24;99271.41;;;3.13;46.94
22964;BME280;11648;49.306;6.934;2023-02-28T00:55:51;99269.59;;;3.11;47.02
22964;BME280;11648;49.306;6.934;2023-02-28T00:58:17;99270.34;;;3.07;46.95
22964;BME280;11648;49.306;6.934;2023-02-28T01:00:44;99272.19;;;3.11;46.98
22964;BME280;11648;49.306;6.934;2023-02-28T01:03:19;99273.97;;;3.12;47.01
22964;BME280;11648;49.306;6.934;2023-02-28T01:05:46;99273.97;;;3.12;46.97
22964;BME280;11648;49.306;6.934;2023-02-28T01:08:14;99273.75;;;3.06;47.41
22964;BME280;11648;49.306;6.934;2023-02-28T01:10:41;99275.59;;;3.08;47.24
22964;BME280;11648;49.306;6.934;2023-02-28T01:13:08;99273.03;;;3.10;47.88
22964;BME280;11648;49.306;6.934;2023-02-28T01:15:36;99273.00;;;3.08;47.57
22964;BME280;11648;49.306;6.934;2023-02-28T01:18:04;99278.22;;;3.10;47.36
22964;BME280;11648;49.306;6.934;2023-02-28T01:20:30;99277.22;;;3.05;47.83
22964;BME280;11648;49.306;6.934;2023-02-28T01:22:57;99273.81;;;3.07;47.51
22964;BME280;11648;49.306;6.934;2023-02-28T01:25:24;99278.78;;;2.99;47.71
22964;BME280;11648;49.306;6.934;2023-02-28T01:27:51;99273.56;;;2.99;47.90
22964;BME280;11648;49.306;6.934;2023-02-28T01:30:18;99275.94;;;2.92;48.09
22964;BME280;11648;49.306;6.934;2023-02-28T01:32:46;99277.63;;;2.90;48.14
22964;BME280;11648;49.306;6.934;2023-02-28T01:35:13;99274.84;;;2.85;48.33
22964;BME280;11648;49.306;6.934;2023-02-28T01:37:39;99273.31;;;2.90;48.42
22964;BME280;11648;49.306;6.934;2023-02-28T01:40:06;99273.16;;;2.86;48.60
22964;BME280;11648;49.306;6.934;2023-02-28T01:42:33;99269.47;;;2.79;48.69
22964;BME280;11648;49.306;6.934;2023-02-28T01:45:14;99275.44;;;2.77;48.87
22964;BME280;11648;49.306;6.934;2023-02-28T01:47:48;99278.03;;;2.77;48.75
22964;BME280;11648;49.306;6.934;2023-02-28T01:50:25;99276.31;;;2.77;49.18
22964;BME280;11648;49.306;6.934;2023-02-28T01:52:55;99276.38;;;2.79;49.19
22964;BME280;11648;49.306;6.934;2023-02-28T01:55:24;99270.28;;;2.78;48.97
22964;BME280;11648;49.306;6.934;2023-02-28T01:57:59;99270.94;;;2.71;49.46
22964;BME280;11648;49.306;6.934;2023-02-28T02:00:27;99270.00;;;2.69;49.59
22964;BME280;11648;49.306;6.934;2023-02-28T02:02:58;99271.63;;;2.66;49.70
22964;BME280;11648;49.306;6.934;2023-02-28T02:05:28;99275.03;;;2.65;49.77
22964;BME280;11648;49.306;6.934;2023-02-28T02:08:02;99269.75;;;2.62;49.94
22964;BME280;11648;49.306;6.934;2023-02-28T02:10:34;99266.47;;;2.67;49.90
22964;BME280;11648;49.306;6.934;2023-02-28T02:32:44;99251.59;;;2.38;51.29
22964;BME280;11648;49.306;6.934;2023-02-28T02:40:19;99255.00;;;2.35;51.50
22964;BME280;11648;49.306;6.934;2023-02-28T02:43:07;99252.47;;;2.37;51.26
22964;BME280;11648;49.306;6.934;2023-02-28T02:45:45;99251.47;;;2.33;51.50
22964;BME280;11648;49.306;6.934;2023-02-28T02:48:16;99254.72;;;2.28;52.07
22964;BME280;11648;49.306;6.934;2023-02-28T02:51:03;99257.31;;;2.28;51.94
22964;BME280;11648;49.306;6.934;2023-02-28T02:54:08;99249.34;;;2.22;52.35
22964;BME280;11648;49.306;6.934;2023-02-28T02:56:39;99253.56;;;2.20;52.26
22964;BME280;11648;49.306;6.934;2023-02-28T02:59:11;99254.63;;;2.25;52.22
22964;BME280;11648;49.306;6.934;2023-02-28T03:01:40;99256.25;;;2.21;52.67
22964;BME280;11648;49.306;6.934;2023-02-28T03:04:16;99253.91;;;2.29;52.34
22964;BME280;11648;49.306;6.934;2023-02-28T03:06:43;99253.91;;;2.29;52.68
22964;BME280;11648;49.306;6.934;2023-02-28T03:09:10;99248.63;;;2.26;52.73
22964;BME280;11648;49.306;6.934;2023-02-28T03:11:40;99251.16;;;2.24;52.86
22964;BME280;11648;49.306;6.934;2023-02-28T03:16:59;99252.91;;;2.25;52.37
22964;BME280;11648;49.306;6.934;2023-02-28T03:19:59;99248.63;;;2.26;52.56
22964;BME280;11648;49.306;6.934;2023-02-28T03:23:00;99252.81;;;2.22;53.02
22964;BME280;11648;49.306;6.934;2023-02-28T03:28:22;99248.19;;;2.14;52.98
22964;BME280;11648;49.306;6.934;2023-02-28T03:31:27;99250.59;;;2.09;53.12
22964;BME280;11648;49.306;6.934;2023-02-28T03:34:08;99247.09;;;2.07;53.28
22964;BME280;11648;49.306;6.934;2023-02-28T03:36:41;99236.63;;;2.06;53.26
22964;BME280;11648;49.306;6.934;2023-02-28T03:39:21;99240.81;;;2.01;53.51
22964;BME280;11648;49.306;6.934;2023-02-28T03:41:52;99239.03;;;1.99;53.35
22964;BME280;11648;49.306;6.934;2023-02-28T03:44:29;99249.31;;;1.96;53.92
22964;BME280;11648;49.306;6.934;2023-02-28T03:47:23;99246.00;;;2.01;53.87
22964;BME280;11648;49.306;6.934;2023-02-28T03:50:05;99235.22;;;1.90;53.53
22964;BME280;11648;49.306;6.934;2023-02-28T03:52:45;99245.66;;;1.91;53.76
22964;BME280;11648;49.306;6.934;2023-02-28T03:55:15;99251.81;;;1.93;53.86
22964;BME280;11648;49.306;6.934;2023-02-28T03:58:04;99242.13;;;1.89;54.31
22964;BME280;11648;49.306;6.934;2023-02-28T04:00:38;99242.06;;;1.88;54.25
22964;BME280;11648;49.306;6.934;2023-02-28T04:03:06;99235.88;;;1.84;54.53
22964;BME280;11648;49.306;6.934;2023-02-28T04:05:45;99242.84;;;1.85;54.75
22964;BME280;11648;49.306;6.934;2023-02-28T04:08:13;99243.75;;;1.86;54.56
22964;BME280;11648;49.306;6.934;2023-02-28T04:10:41;99239.44;;;1.86;54.70
22964;BME280;11648;49.306;6.934;2023-02-28T04:13:09;99235.16;;;1.88;55.07
22964;BME280;11648;49.306;6.934;2023-02-28T04:15:36;99241.25;;;1.89;54.60
22964;BME280;11648;49.306;6.934;2023-02-28T04:18:03;99242.03;;;1.86;54.73
22964;BME280;11648;49.306;6.934;2023-02-28T04:20:29;99238.38;;;1.81;54.77
22964;BME280;11648;49.306;6.934;2023-02-28T04:22:56;99242.13;;;1.89;55.03
22964;BME280;11648;49.306;6.934;2023-02-28T04:25:23;99240.09;;;1.81;55.27
22964;BME280;11648;49.306;6.934;2023-02-28T04:27:49;99241.06;;;1.84;55.10
22964;BME280;11648;49.306;6.934;2023-02-28T04:30:16;99234.97;;;1.82;55.31
22964;BME280;11648;49.306;6.934;2023-02-28T04:32:43;99235.06;;;1.85;55.19
22964;BME280;11648;49.306;6.934;2023-02-28T04:35:10;99241.78;;;1.80;54.98
22964;BME280;11648;49.306;6.934;2023-02-28T04:37:38;99234.09;;;1.83;55.27
22964;BME280;11648;49.306;6.934;2023-02-28T04:40:05;99238.47;;;1.84;55.11
22964;BME280;11648;49.306;6.934;2023-02-28T04:42:31;99234.69;;;1.75;55.49
22964;BME280;11648;49.306;6.934;2023-02-28T04:45:02;99230.59;;;1.81;55.05
22964;BME280;11648;49.306;6.934;2023-02-28T04:47:30;99242.28;;;1.70;55.66
22964;BME280;11648;49.306;6.934;2023-02-28T04:49:57;99236.38;;;1.74;55.53
22964;BME280;11648;49.306;6.934;2023-02-28T04:52:23;99240.50;;;1.69;55.99
22964;BME280;11648;49.306;6.934;2023-02-28T04:54:50;99241.38;;;1.68;56.31
22964;BME280;11648;49.306;6.934;2023-02-28T04:57:17;99238.09;;;1.74;55.75
22964;BME280;11648;49.306;6.934;2023-02-28T04:59:43;99241.56;;;1.74;56.15
22964;BME280;11648;49.306;6.934;2023-02-28T05:02:10;99240.69;;;1.74;56.12
22964;BME280;11648;49.306;6.934;2023-02-28T05:04:37;99241.56;;;1.74;55.89
22964;BME280;11648;49.306;6.934;2023-02-28T05:07:04;99243.50;;;1.80;55.78
22964;BME280;11648;49.306;6.934;2023-02-28T05:09:31;99241.66;;;1.76;56.15
22964;BME280;11648;49.306;6.934;2023-02-28T05:11:59;99246.88;;;1.77;55.95
22964;BME280;11648;49.306;6.934;2023-02-28T05:14:26;99237.47;;;1.81;56.11
22964;BME280;11648;49.306;6.934;2023-02-28T05:16:52;99244.09;;;1.73;56.13
22964;BME280;11648;49.306;6.934;2023-02-28T05:19:19;99243.34;;;1.75;56.01
22964;BME280;11648;49.306;6.934;2023-02-28T05:21:52;99238.16;;;1.75;56.04
22964;BME280;11648;49.306;6.934;2023-02-28T05:24:19;99238.16;;;1.75;56.24
22964;BME280;11648;49.306;6.934;2023-02-28T05:26:51;99246.09;;;1.80;56.23
22964;BME280;11648;49.306;6.934;2023-02-28T05:29:18;99249.53;;;1.79;56.59
22964;BME280;11648;49.306;6.934;2023-02-28T05:31:45;99256.38;;;1.77;56.30
22964;BME280;11648;49.306;6.934;2023-02-28T05:34:13;99255.66;;;1.81;56.19
22964;BME280;11648;49.306;6.934;2023-02-28T05:36:42;99259.13;;;1.81;56.25
22964;BME280;11648;49.306;6.934;2023-02-28T05:39:09;99259.03;;;1.78;56.51
22964;BME280;11648;49.306;6.934;2023-02-28T05:41:41;99256.25;;;1.74;56.61
22964;BME280;11648;49.306;6.934;2023-02-28T05:44:09;99259.84;;;1.77;57.00
22964;BME280;11648;49.306;6.934;2023-02-28T05:46:36;99260.75;;;1.78;56.82
22964;BME280;11648;49.306;6.934;2023-02-28T05:49:03;99253.75;;;1.75;56.81
22964;BME280;11648;49.306;6.934;2023-02-28T05:51:30;99258.97;;;1.77;56.63
22964;BME280;11648;49.306;6.934;2023-02-28T05:54:01;99260.66;;;1.76;56.90
22964;BME280;11648;49.306;6.934;2023-02-28T05:56:28;99259.69;;;1.73;57.12
22964;BME280;11648;49.306;6.934;2023-02-28T05:58:55;99264.25;;;1.80;56.95
22964;BME280;11648;49.306;6.934;2023-02-28T06:01:38;99265.75;;;1.73;56.78
22964;BME280;11648;49.306;6.934;2023-02-28T06:04:08;99268.31;;;1.72;57.16
22964;BME280;11648;49.306;6.934;2023-02-28T06:06:45;99267.34;;;1.70;57.06
22964;BME280;11648;49.306;6.934;2023-02-28T06:09:12;99264.47;;;1.62;57.39
22964;BME280;11648;49.306;6.934;2023-02-28T06:11:40;99266.31;;;1.65;57.80
22964;BME280;11648;49.306;6.934;2023-02-28T06:14:07;99262.84;;;1.64;57.40
22964;BME280;11648;49.306;6.934;2023-02-28T06:16:34;99267.22;;;1.65;57.51
22964;BME280;11648;49.306;6.934;2023-02-28T06:19:03;99275.22;;;1.71;57.54
22964;BME280;11648;49.306;6.934;2023-02-28T06:21:31;99270.13;;;1.74;57.40
22964;BME280;11648;49.306;6.934;2023-02-28T06:23:58;99277.91;;;1.74;57.63
22964;BME280;11648;49.306;6.934;2023-02-28T06:26:25;99283.22;;;1.77;57.85
22964;BME280;11648;49.306;6.934;2023-02-28T06:28:52;99276.13;;;1.73;57.89
22964;BME280;11648;49.306;6.934;2023-02-28T06:31:19;99280.22;;;1.67;57.55
22964;BME280;11648;49.306;6.934;2023-02-28T06:33:46;99287.22;;;1.69;57.69
22964;BME280;11648;49.306;6.934;2023-02-28T06:36:16;99284.91;;;1.77;57.82
22964;BME280;11648;49.306;6.934;2023-02-28T06:38:43;99289.06;;;1.72;58.33
22964;BME280;11648;49.306;6.934;2023-02-28T06:41:10;99287.41;;;1.74;58.15
22964;BME280;11648;49.306;6.934;2023-02-28T06:43:40;99283.00;;;1.71;58.40
22964;BME280;11648;49.306;6.934;2023-02-28T06:46:10;99284.38;;;1.85;57.51
22964;BME280;11648;49.306;6.934;2023-02-28T06:48:43;99280.63;;;1.77;58.05
22964;BME280;11648;49.306;6.934;2023-02-28T06:51:12;99290.75;;;1.93;57.44
22964;BME280;11648;49.306;6.934;2023-02-28T06:53:40;99292.78;;;2.02;57.14
22964;BME280;11648;49.306;6.934;2023-02-28T06:56:10;99294.63;;;2.05;57.19
22964;BME280;11648;49.306;6.934;2023-02-28T06:58:37;99293.88;;;2.09;57.53
22964;BME280;11648;49.306;6.934;2023-02-28T07:01:07;99304.50;;;2.15;57.22
22964;BME280;11648;49.306;6.934;2023-02-28T07:03:35;99292.78;;;2.26;56.85
22964;BME280;11648;49.306;6.934;2023-02-28T07:06:02;99299.34;;;2.41;56.21
22964;BME280;11648;49.306;6.934;2023-02-28T07:08:30;99297.34;;;2.58;56.04
22964;BME280;11648;49.306;6.934;2023-02-28T07:10:58;99299.44;;;2.68;55.43
22964;BME280;11648;49.306;6.934;2023-02-28T07:13:25;99289.63;;;2.86;55.11
22964;BME280;11648;49.306;6.934;2023-02-28T07:15:57;99296.19;;;3.02;54.84
22964;BME280;11648;49.306;6.934;2023-02-28T07:18:24;99287.34;;;3.24;54.29
22964;BME280;11648;49.306;6.934;2023-02-28T07:20:54;99299.28;;;3.17;54.32
22964;BME280;11648;49.306;6.934;2023-02-28T07:23:22;99296.28;;;3.60;53.36
22964;BME280;11648;49.306;6.934;2023-02-28T07:25:50;99297.50;;;4.03;52.02
22964;BME280;11648;49.306;6.934;2023-02-28T07:28:17;99281.00;;;4.66;50.45
22964;BME280;11648;49.306;6.934;2023-02-28T07:30:43;99276.91;;;5.49;48.84
22964;BME280;11648;49.306;6.934;2023-02-28T07:33:10;99266.09;;;6.61;45.70
22964;BME280;11648;49.306;6.934;2023-02-28T07:35:37;99251.47;;;7.25;43.71
22964;BME280;11648;49.306;6.934;2023-02-28T07:38:04;99252.28;;;7.85;42.44
22964;BME280;11648;49.306;6.934;2023-02-28T07:40:31;99242.75;;;8.72;40.96
22964;BME280;11648;49.306;6.934;2023-02-28T07:42:59;99245.91;;;9.40;39.51
22964;BME280;11648;49.306;6.934;2023-02-28T07:45:26;99239.25;;;10.12;37.97
22964;BME280;11648;49.306;6.934;2023-02-28T07:47:55;99235.03;;;10.67;36.38
22964;BME280;11648;49.306;6.934;2023-02-28T07:50:22;99234.94;;;10.35;36.17
22964;BME280;11648;49.306;6.934;2023-02-28T07:52:52;99234.94;;;10.36;37.07
22964;BME280;11648;49.306;6.934;2023-02-28T07:55:18;99242.06;;;11.06;35.85
22964;BME280;11648;49.306;6.934;2023-02-28T07:57:45;99221.66;;;11.96;33.97
22964;BME280;11648;49.306;6.934;2023-02-28T08:00:12;99225.13;;;12.04;33.36
22964;BME280;11648;49.306;6.934;2023-02-28T08:02:40;99232.28;;;11.65;33.49
22964;BME280;11648;49.306;6.934;2023-02-28T08:05:07;99227.81;;;11.96;33.73
22964;BME280;11648;49.306;6.934;2023-02-28T08:07:34;99218.91;;;12.11;33.02
22964;BME280;11648;49.306;6.934;2023-02-28T08:10:01;99225.94;;;12.21;33.33
22964;BME280;11648;49.306;6.934;2023-02-28T08:12:28;99227.69;;;12.14;33.00
22964;BME280;11648;49.306;6.934;2023-02-28T08:14:55;99218.47;;;12.80;32.35
22964;BME280;11648;49.306;6.934;2023-02-28T08:17:22;99217.34;;;13.18;31.34
22964;BME280;11648;49.306;6.934;2023-02-28T08:19:49;99212.69;;;13.43;31.19
22964;BME280;11648;49.306;6.934;2023-02-28T08:22:16;99213.78;;;13.98;30.42
22964;BME280;11648;49.306;6.934;2023-02-28T08:24:42;99206.97;;;15.04;28.99
22964;BME280;11648;49.306;6.934;2023-02-28T08:27:10;99204.88;;;15.70;27.81
22964;BME280;11648;49.306;6.934;2023-02-28T08:29:37;99201.72;;;15.50;27.52
22964;BME280;11648;49.306;6.934;2023-02-28T08:32:06;99197.00;;;15.66;27.37
22964;BME280;11648;49.306;6.934;2023-02-28T08:34:46;99190.78;;;16.10;26.42
22964;BME280;11648;49.306;6.934;2023-02-28T08:37:13;99193.66;;;16.77;26.10
22964;BME280;11648;49.306;6.934;2023-02-28T08:39:40;99189.19;;;16.81;25.70
22964;BME280;11648;49.306;6.934;2023-02-28T08:42:07;99192.59;;;16.86;25.86
22964;BME280;11648;49.306;6.934;2023-02-28T08:44:34;99189.75;;;16.55;26.39
22964;BME280;11648;49.306;6.934;2023-02-28T08:47:00;99193.34;;;16.56;26.24
22964;BME280;11648;49.306;6.934;2023-02-28T08:49:27;99187.91;;;16.96;25.42
22964;BME280;11648;49.306;6.934;2023-02-28T08:51:55;99187.09;;;16.55;25.77
22964;BME280;11648;49.306;6.934;2023-02-28T08:54:24;99189.78;;;16.54;26.10
22964;BME280;11648;49.306;6.934;2023-02-28T08:56:51;99195.75;;;16.25;25.92
22964;BME280;11648;49.306;6.934;2023-02-28T08:59:18;99199.13;;;15.92;26.36
22964;BME280;11648;49.306;6.934;2023-02-28T09:01:44;99196.53;;;15.89;26.30
22964;BME280;11648;49.306;6.934;2023-02-28T09:04:11;99202.47;;;15.58;26.84
22964;BME280;11648;49.306;6.934;2023-02-28T09:06:42;99197.59;;;14.22;28.14
22964;BME280;11648;49.306;6.934;2023-02-28T09:09:10;99223.03;;;12.62;30.70
22964;BME280;11648;49.306;6.934;2023-02-28T09:11:37;99227.13;;;10.86;33.33
22964;BME280;11648;49.306;6.934;2023-02-28T09:14:04;99231.44;;;10.33;34.28
22964;BME280;11648;49.306;6.934;2023-02-28T09:16:32;99232.13;;;9.80;35.11
22964;BME280;11648;49.306;6.934;2023-02-28T09:19:00;99230.31;;;9.78;35.23
22964;BME280;11648;49.306;6.934;2023-02-28T09:21:27;99230.34;;;9.82;35.73
22964;BME280;11648;49.306;6.934;2023-02-28T09:23:55;99239.22;;;10.06;35.30
22964;BME280;11648;49.306;6.934;2023-02-28T09:26:24;99238.28;;;9.93;34.95
22964;BME280;11648;49.306;6.934;2023-02-28T09:28:52;99233.00;;;9.84;36.25
22964;BME280;11648;49.306;6.934;2023-02-28T09:31:23;99236.69;;;10.33;35.41
22964;BME280;11648;49.306;6.934;2023-02-28T09:33:51;99231.47;;;10.48;34.34
22964;BME280;11648;49.306;6.934;2023-02-28T09:36:18;99233.09;;;10.11;35.31
22964;BME280;11648;49.306;6.934;2023-02-28T09:38:46;99239.09;;;9.78;35.92
22964;BME280;11648;49.306;6.934;2023-02-28T09:43:56;99237.31;;;9.74;35.40
22964;BME280;11648;49.306;6.934;2023-02-28T09:49:04;99225.97;;;9.81;35.84
22964;BME280;11648;49.306;6.934;2023-02-28T09:51:58;99235.81;;;10.26;35.46
22964;BME280;11648;49.306;6.934;2023-02-28T09:54:30;99234.97;;;10.47;35.25
22964;BME280;11648;49.306;6.934;2023-02-28T09:59:54;99233.91;;;9.87;35.30
22964;BME280;11648;49.306;6.934;2023-02-28T10:02:46;99236.38;;;9.60;35.64
22964;BME280;11648;49.306;6.934;2023-02-28T10:05:16;99235.31;;;9.29;36.85
22964;BME280;11648;49.306;6.934;2023-02-28T10:10:29;99238.06;;;9.45;35.82
22964;BME280;11648;49.306;6.934;2023-02-28T10:13:01;99236.38;;;9.57;36.56
22964;BME280;11648;49.306;6.934;2023-02-28T10:15:30;99241.44;;;9.28;36.22
22964;BME280;11648;49.306;6.934;2023-02-28T10:18:02;99246.84;;;9.48;35.80
22964;BME280;11648;49.306;6.934;2023-02-28T10:20:37;99232.88;;;9.58;35.34
22964;BME280;11648;49.306;6.934;2023-02-28T10:23:25;99252.88;;;9.38;35.88
22964;BME280;11648;49.306;6.934;2023-02-28T10:26:09;99239.31;;;10.25;34.70
22964;BME280;11648;49.306;6.934;2023-02-28T10:28:37;99227.78;;;11.99;32.24
22964;BME280;11648;49.306;6.934;2023-02-28T10:31:04;99219.66;;;12.37;31.57
22964;BME280;11648;49.306;6.934;2023-02-28T10:33:35;99204.72;;;12.39;30.93
22964;BME280;11648;49.306;6.934;2023-02-28T10:36:03;99209.72;;;12.75;30.04
22964;BME280;11648;49.306;6.934;2023-02-28T10:38:35;99201.03;;;13.59;29.39
22964;BME280;11648;49.306;6.934;2023-02-28T10:41:13;99200.25;;;14.22;27.97
22964;BME280;11648;49.306;6.934;2023-02-28T10:43:43;99192.38;;;14.77;27.65
22964;BME280;11648;49.306;6.934;2023-02-28T10:46:19;99186.47;;;16.44;25.60
22964;BME280;11648;49.306;6.934;2023-02-28T10:49:05;99180.72;;;16.24;25.28
22964;BME280;11648;49.306;6.934;2023-02-28T10:51:39;99191.47;;;14.78;26.89
22964;BME280;11648;49.306;6.934;2023-02-28T10:54:19;99190.88;;;13.96;27.70
22964;BME280;11648;49.306;6.934;2023-02-28T10:57:05;99192.63;;;13.20;29.13
22964;BME280;11648;49.306;6.934;2023-02-28T10:59:33;99192.81;;;12.95;30.09
22964;BME280;11648;49.306;6.934;2023-02-28T11:02:00;99188.44;;;12.91;29.02
22964;BME280;11648;49.306;6.934;2023-02-28T11:06:59;99197.78;;;12.20;29.86
22964;BME280;11648;49.306;6.934;2023-02-28T11:12:00;99195.44;;;12.99;29.66
22964;BME280;11648;49.306;6.934;2023-02-28T11:14:29;99195.72;;;13.60;28.65
22964;BME280;11648;49.306;6.934;2023-02-28T11:17:13;99178.69;;;12.99;28.91
22964;BME280;11648;49.306;6.934;2023-02-28T11:19:46;99192.91;;;12.82;29.42
22964;BME280;11648;49.306;6.934;2023-02-28T11:22:23;99184.22;;;12.68;29.28
22964;BME280;11648;49.306;6.934;2023-02-28T11:24:53;99183.38;;;13.59;28.38
22964;BME280;11648;49.306;6.934;2023-02-28T11:29:59;99169.88;;;15.93;25.50
22964;BME280;11648;49.306;6.934;2023-02-28T11:32:28;99164.34;;;15.62;25.69
22964;BME280;11648;49.306;6.934;2023-02-28T11:37:38;99174.75;;;15.73;25.40
22964;BME280;11648;49.306;6.934;2023-02-28T11:40:15;99156.78;;;17.33;23.47
22964;BME280;11648;49.306;6.934;2023-02-28T11:48:37;99162.16;;;16.22;24.19
22964;BME280;11648;49.306;6.934;2023-02-28T11:51:20;99187.13;;;14.74;26.53
22964;BME280;11648;49.306;6.934;2023-02-28T11:56:43;99187.47;;;13.04;27.80
22964;BME280;11648;49.306;6.934;2023-02-28T12:07:35;99187.53;;;11.38;31.21
22964;BME280;11648;49.306;6.934;2023-02-28T12:16:00;99172.88;;;12.59;29.72
22964;BME280;11648;49.306;6.934;2023-02-28T12:24:05;99175.25;;;11.19;31.33
22964;BME280;11648;49.306;6.934;2023-02-28T12:26:41;99179.69;;;10.71;31.58
22964;BME280;11648;49.306;6.934;2023-02-28T12:29:29;99181.41;;;10.16;32.54
22964;BME280;11648;49.306;6.934;2023-02-28T12:34:57;99190.91;;;9.76;32.90
22964;BME280;11648;49.306;6.934;2023-02-28T12:37:31;99189.03;;;9.51;34.25
22964;BME280;11648;49.306;6.934;2023-02-28T12:40:05;99188.22;;;9.70;33.29
22964;BME280;11648;49.306;6.934;2023-02-28T12:42:40;99194.31;;;9.59;33.72
22964;BME280;11648;49.306;6.934;2023-02-28T12:45:23;99188.94;;;9.36;34.10
22964;BME280;11648;49.306;6.934;2023-02-28T12:47:58;99188.97;;;9.45;34.19
22964;BME280;11648;49.306;6.934;2023-02-28T12:50:27;99181.97;;;9.42;33.90
22964;BME280;11648;49.306;6.934;2023-02-28T12:53:06;99188.22;;;9.64;33.78
22964;BME280;11648;49.306;6.934;2023-02-28T12:58:35;99188.97;;;9.39;33.91
22964;BME280;11648;49.306;6.934;2023-02-28T13:09:17;99198.06;;;8.61;35.29
22964;BME280;11648;49.306;6.934;2023-02-28T13:11:46;99192.63;;;8.43;35.76
22964;BME280;11648;49.306;6.934;2023-02-28T13:22:38;99197.63;;;8.23;36.01
22964;BME280;11648;49.306;6.934;2023-02-28T13:27:54;99188.44;;;8.63;35.77
22964;BME280;11648;49.306;6.934;2023-02-28T13:44:02;99168.91;;;9.55;33.50
22964;BME280;11648;49.306;6.934;2023-02-28T13:46:30;99179.47;;;9.77;33.93
22964;BME280;11648;49.306;6.934;2023-02-28T13:51:51;99167.25;;;9.88;33.59
22964;BME280;11648;49.306;6.934;2023-02-28T13:57:19;99169.06;;;10.11;33.59
22964;BME280;11648;49.306;6.934;2023-02-28T14:05:26;99169.16;;;10.23;32.32
22964;BME280;11648;49.306;6.934;2023-02-28T14:07:58;99161.97;;;9.73;32.52
22964;BME280;11648;49.306;6.934;2023-02-28T14:10:31;99171.41;;;9.35;33.78
22964;BME280;11648;49.306;6.934;2023-02-28T14:18:11;99168.84;;;9.41;33.99
22964;BME280;11648;49.306;6.934;2023-02-28T14:20:42;99166.25;;;9.53;33.73
22964;BME280;11648;49.306;6.934;2023-02-28T14:23:21;99162.78;;;9.63;34.04
22964;BME280;11648;49.306;6.934;2023-02-28T14:31:24;99163.63;;;9.56;33.47
22964;BME280;11648;49.306;6.934;2023-02-28T14:36:41;99160.22;;;9.78;33.06
22964;BME280;11648;49.306;6.934;2023-02-28T14:39:15;99164.59;;;9.73;33.63
22964;BME280;11648;49.306;6.934;2023-02-28T14:41:43;99161.91;;;9.61;33.64
22964;BME280;11648;49.306;6.934;2023-02-28T14:44:23;99164.47;;;9.43;34.01
22964;BME280;11648;49.306;6.934;2023-02-28T14:46:53;99160.91;;;9.35;33.90
22964;BME280;11648;49.306;6.934;2023-02-28T14:49:26;99166.16;;;9.35;34.21
22964;BME280;11648;49.306;6.934;2023-02-28T14:52:14;99172.31;;;9.40;34.30
22964;BME280;11648;49.306;6.934;2023-02-28T14:54:41;99167.84;;;9.19;34.26
22964;BME280;11648;49.306;6.934;2023-02-28T14:57:28;99165.31;;;9.39;33.78
22964;BME280;11648;49.306;6.934;2023-02-28T15:00:22;99166.25;;;9.56;34.20
22964;BME280;11648;49.306;6.934;2023-02-28T15:02:46;99164.53;;;9.60;33.93
22964;BME280;11648;49.306;6.934;2023-02-28T15:07:44;99166.34;;;9.74;33.45
22964;BME280;11648;49.306;6.934;2023-02-28T15:10:25;99171.59;;;9.73;34.26
22964;BME280;11648;49.306;6.934;2023-02-28T15:15:32;99161.00;;;9.52;34.07
22964;BME280;11648;49.306;6.934;2023-02-28T15:18:17;99160.09;;;9.53;33.91
22964;BME280;11648;49.306;6.934;2023-02-28T15:20:49;99164.38;;;9.34;34.83
22964;BME280;11648;49.306;6.934;2023-02-28T15:23:18;99171.44;;;9.33;34.60
22964;BME280;11648;49.306;6.934;2023-02-28T15:25:47;99176.59;;;9.24;34.66
22964;BME280;11648;49.306;6.934;2023-02-28T15:28:20;99179.19;;;9.14;34.72
22964;BME280;11648;49.306;6.934;2023-02-28T15:30:58;99166.06;;;9.20;34.38
22964;BME280;11648;49.306;6.934;2023-02-28T15:33:30;99170.34;;;9.03;35.10
22964;BME280;11648;49.306;6.934;2023-02-28T15:36:14;99173.03;;;9.10;35.35
22964;BME280;11648;49.306;6.934;2023-02-28T15:38:43;99184.41;;;9.08;35.16
22964;BME280;11648;49.306;6.934;2023-02-28T15:41:25;99180.75;;;8.89;35.13
22964;BME280;11648;49.306;6.934;2023-02-28T15:44:16;99182.47;;;8.85;35.40
22964;BME280;11648;49.306;6.934;2023-02-28T15:46:53;99175.38;;;8.74;35.84
22964;BME280;11648;49.306;6.934;2023-02-28T15:49:22;99172.69;;;8.66;36.41
22964;BME280;11648;49.306;6.934;2023-02-28T15:51:51;99181.50;;;8.71;35.93
22964;BME280;11648;49.306;6.934;2023-02-28T15:54:23;99181.34;;;8.53;36.37
22964;BME280;11648;49.306;6.934;2023-02-28T15:56:52;99183.69;;;8.27;36.06